| time (UTC) | temp F | wind direction | speed knots | gust knots | rain 1hr in | rain 24hr in | rain mn in | humidity % | barometer mb |
| 20260906205814 | 65 | 45 | 1.7 | 2.6 | 0.00 | 0.00 | 0.00 | 58 | 1013.6 |
| 20260906205310 | 66 | 197 | 1.7 | 1.7 | 0.00 | 0.00 | 0.00 | 57 | 1013.7 |
| 20260906204805 | 66 | 128 | 5.2 | 7.0 | 0.00 | 0.00 | 0.00 | 57 | 1013.7 |
| 20260906204304 | 65 | 71 | 2.6 | 3.5 | 0.00 | 0.00 | 0.00 | 58 | 1013.7 |
| 20260906203804 | 65 | 98 | 3.5 | 5.2 | 0.00 | 0.00 | 0.00 | 57 | 1013.8 |
| 20260906203259 | 65 | 134 | 6.1 | 7.0 | 0.00 | 0.00 | 0.00 | 57 | 1013.8 |
| 20260906202756 | 65 | 139 | 6.1 | 7.8 | 0.00 | 0.00 | 0.00 | 56 | 1014.0 |
| 20260906202255 | 65 | 150 | 3.5 | 5.2 | 0.00 | 0.00 | 0.00 | 55 | 1014.0 |
| 20260906201750 | 65 | 207 | 1.7 | 2.6 | 0.00 | 0.00 | 0.00 | 55 | 1013.8 |
| 20260906201250 | 65 | 148 | 2.6 | 5.2 | 0.00 | 0.00 | 0.00 | 56 | 1014.0 |
| 20260906200745 | 65 | 194 | 2.6 | 3.5 | 0.00 | 0.00 | 0.00 | 57 | 1014.1 |
| 20260906200241 | 65 | 155 | 3.5 | 3.5 | 0.00 | 0.00 | 0.00 | 55 | 1014.1 |
| 20260906195737 | 65 | 160 | 3.5 | 5.2 | 0.00 | 0.00 | 0.00 | 56 | 1014.1 |
| 20260906195233 | 66 | 156 | 1.7 | 1.7 | 0.00 | 0.00 | 0.00 | 55 | 1014.3 |
| 20260906194729 | 65 | 115 | 5.2 | 7.0 | 0.00 | 0.00 | 0.00 | 54 | 1014.2 |
| 20260906194225 | 66 | 191 | 1.7 | 2.6 | 0.00 | 0.00 | 0.00 | 54 | 1014.3 |
| 20260906193720 | 65 | 173 | 2.6 | 3.5 | 0.00 | 0.00 | 0.00 | 55 | 1014.6 |
| 20260906193220 | 65 | 102 | 2.6 | 3.5 | 0.00 | 0.00 | 0.00 | 55 | 1014.4 |
| 20260906192716 | 64 | 112 | 4.3 | 5.2 | 0.00 | 0.00 | 0.00 | 56 | 1014.4 |
| 20260906192210 | 64 | 140 | 3.5 | 5.2 | 0.00 | 0.00 | 0.00 | 56 | 1014.6 |
| 20260906191710 | 63 | 37 | 1.7 | 2.6 | 0.00 | 0.00 | 0.00 | 56 | 1014.5 |
| 20260906191204 | 65 | 66 | 2.6 | 6.1 | 0.00 | 0.00 | 0.00 | 55 | 1014.6 |
| 20260906190704 | 65 | 181 | 0.9 | 1.7 | 0.00 | 0.00 | 0.00 | 57 | 1014.6 |
| 20260906190159 | 65 | 0 | 0.9 | 1.7 | 0.00 | 0.00 | 0.00 | 57 | 1014.6 |
| 20260906185658 | 64 | 160 | 5.2 | 7.0 | 0.00 | 0.00 | 0.00 | 55 | 1014.4 |
| 20260906185157 | 63 | 115 | 3.5 | 6.1 | 0.00 | 0.00 | 0.00 | 58 | 1014.3 |
| 20260906184651 | 63 | 62 | 2.6 | 3.5 | 0.00 | 0.00 | 0.00 | 59 | 1014.4 |
| 20260906184147 | 62 | 58 | 2.6 | 3.5 | 0.00 | 0.00 | 0.00 | 59 | 1014.4 |
| 20260906183642 | 62 | 171 | 1.7 | 2.6 | 0.00 | 0.00 | 0.00 | 61 | 1014.6 |
| 20260906183139 | 62 | 225 | 1.7 | 3.5 | 0.00 | 0.00 | 0.00 | 59 | 1014.5 |
| 20260906182639 | 61 | 191 | 0.9 | 0.9 | 0.00 | 0.00 | 0.00 | 62 | 1014.5 |
| 20260906182135 | 61 | 43 | 1.7 | 1.7 | 0.00 | 0.00 | 0.00 | 61 | 1014.8 |
| 20260906181630 | 60 | 98 | 2.6 | 3.5 | 0.00 | 0.00 | 0.00 | 62 | 1014.7 |
| 20260906181126 | 60 | 127 | 1.7 | 2.6 | 0.00 | 0.00 | 0.00 | 63 | 1014.8 |
| 20260906180621 | 60 | 172 | 2.6 | 3.5 | 0.00 | 0.00 | 0.00 | 62 | 1014.9 |
| 20260906180120 | 60 | 186 | 4.3 | 7.8 | 0.00 | 0.00 | 0.00 | 63 | 1014.6 |
| 20260906175619 | 59 | 166 | 5.2 | 7.0 | 0.00 | 0.00 | 0.00 | 63 | 1014.9 |
| 20260906175114 | 59 | 141 | 4.3 | 5.2 | 0.00 | 0.00 | 0.00 | 64 | 1015.0 |
| 20260906174612 | 59 | 166 | 7.0 | 7.8 | 0.00 | 0.00 | 0.00 | 63 | 1015.0 |
| 20260906174107 | 59 | 115 | 1.7 | 2.6 | 0.00 | 0.00 | 0.00 | 64 | 1015.1 |
| 20260906173602 | 59 | 14 | 1.7 | 2.6 | 0.00 | 0.00 | 0.00 | 64 | 1015.2 |
| 20260906173058 | 59 | 159 | 4.3 | 5.2 | 0.00 | 0.00 | 0.00 | 62 | 1015.5 |
| 20260906172557 | 60 | 159 | 5.2 | 6.1 | 0.00 | 0.00 | 0.00 | 62 | 1015.5 |
| 20260906172053 | 59 | 142 | 3.5 | 3.5 | 0.00 | 0.00 | 0.00 | 64 | 1015.7 |
| 20260906171553 | 58 | 127 | 4.3 | 5.2 | 0.00 | 0.00 | 0.00 | 65 | 1015.8 |
| 20260906171048 | 58 | 288 | 0.9 | 0.9 | 0.00 | 0.00 | 0.00 | 66 | 1015.8 |
| 20260906170544 | 57 | 96 | 3.5 | 5.2 | 0.00 | 0.00 | 0.00 | 67 | 1016.1 |
| 20260906170043 | 57 | 76 | 1.7 | 2.6 | 0.00 | 0.00 | 0.00 | 67 | 1016.2 |
| 20260906165540 | 56 | 143 | 0.9 | 1.7 | 0.00 | 0.00 | 0.00 | 68 | 1016.1 |
| 20260906165035 | 55 | 183 | 1.7 | 2.6 | 0.00 | 0.00 | 0.00 | 70 | 1016.2 |
| 20260906164534 | 55 | 36 | 3.5 | 3.5 | 0.00 | 0.00 | 0.00 | 69 | 1016.2 |
| 20260906164030 | 55 | 125 | 4.3 | 6.1 | 0.00 | 0.00 | 0.00 | 69 | 1016.3 |
| 20260906163526 | 55 | 181 | 2.6 | 2.6 | 0.00 | 0.00 | 0.00 | 70 | 1016.1 |
| 20260906163021 | 54 | 129 | 3.5 | 5.2 | 0.00 | 0.00 | 0.00 | 69 | 1016.5 |
| 20260906162518 | 54 | 332 | 1.7 | 1.7 | 0.00 | 0.00 | 0.00 | 69 | 1016.4 |
| 20260906162013 | 54 | 194 | 0.9 | 0.9 | 0.00 | 0.00 | 0.00 | 68 | 1016.4 |
| 20260906161508 | 54 | 159 | 1.7 | 2.6 | 0.00 | 0.00 | 0.00 | 70 | 1016.4 |
| 20260906161007 | 54 | 67 | 2.6 | 2.6 | 0.00 | 0.00 | 0.00 | 68 | 1016.6 |
| 20260906160506 | 54 | 359 | 1.7 | 2.6 | 0.00 | 0.00 | 0.00 | 68 | 1016.6 |
| 20260906160005 | 53 | 67 | 2.6 | 3.5 | 0.00 | 0.00 | 0.00 | 69 | 1016.5 |
| 20260906155503 | 53 | 95 | 1.7 | 3.5 | 0.00 | 0.00 | 0.00 | 69 | 1016.6 |
| 20260906154959 | 53 | 35 | 2.6 | 2.6 | 0.00 | 0.00 | 0.00 | 69 | 1016.5 |
| 20260906154454 | 52 | 180 | 0.9 | 0.9 | 0.00 | 0.00 | 0.00 | 71 | 1016.7 |
| 20260906153952 | 53 | 351 | 3.5 | 5.2 | 0.00 | 0.00 | 0.00 | 70 | 1016.7 |
| 20260906153451 | 53 | 235 | 0.9 | 0.9 | 0.00 | 0.00 | 0.00 | 72 | 1016.6 |
| 20260906152948 | 52 | 147 | 0.9 | 0.9 | 0.00 | 0.00 | 0.00 | 73 | 1016.7 |
| 20260906152448 | 51 | 278 | 0.9 | 0.9 | 0.00 | 0.00 | 0.00 | 74 | 1017.0 |
| 20260906151946 | 51 | 220 | 0.0 | 0.9 | 0.00 | 0.00 | 0.00 | 75 | 1016.9 |
| 20260906151442 | 51 | 125 | 1.7 | 1.7 | 0.00 | 0.00 | 0.00 | 74 | 1016.8 |
| 20260906150937 | 50 | 48 | 2.6 | 2.6 | 0.00 | 0.00 | 0.00 | 75 | 1016.9 |
| 20260906150433 | 50 | 37 | 0.9 | 1.7 | 0.00 | 0.00 | 0.00 | 76 | 1016.7 |
| 20260906145932 | 49 | 28 | 1.7 | 2.6 | 0.00 | 0.00 | 0.00 | 77 | 1016.9 |
| 20260906145431 | 49 | 11 | 1.7 | 3.5 | 0.00 | 0.00 | 0.00 | 77 | 1016.7 |
| 20260906144926 | 48 | 15 | 3.5 | 3.5 | 0.00 | 0.00 | 0.00 | 78 | 1016.7 |
| 20260906144421 | 48 | 18 | 0.9 | 0.9 | 0.00 | 0.00 | 0.00 | 78 | 1016.8 |
| 20260906143916 | 48 | 25 | 0.0 | 0.9 | 0.00 | 0.00 | 0.00 | 81 | 1016.8 |
| 20260906143412 | 47 | 344 | 1.7 | 1.7 | 0.00 | 0.00 | 0.00 | 81 | 1016.7 |
| 20260906142908 | 46 | 340 | 0.9 | 0.9 | 0.00 | 0.00 | 0.00 | 83 | 1016.7 |
| 20260906142408 | 45 | 301 | 0.0 | 0.0 | 0.00 | 0.00 | 0.00 | 85 | 1016.8 |
| 20260906141908 | 44 | 322 | 0.9 | 1.7 | 0.00 | 0.00 | 0.00 | 88 | 1016.5 |
| 20260906141402 | 43 | 323 | 0.9 | 0.9 | 0.00 | 0.00 | 0.00 | 91 | 1016.7 |
| 20260906140901 | 43 | 324 | 0.0 | 0.0 | 0.00 | 0.00 | 0.00 | 88 | 1016.7 |
| 20260906140356 | 43 | 324 | 0.9 | 0.9 | 0.00 | 0.00 | 0.00 | 90 | 1016.6 |
| 20260906135855 | 44 | 303 | 0.0 | 0.9 | 0.00 | 0.00 | 0.00 | 88 | 1016.8 |
| 20260906135354 | 44 | 17 | 1.7 | 1.7 | 0.00 | 0.00 | 0.00 | 89 | 1016.6 |
| 20260906134849 | 44 | 321 | 0.0 | 0.9 | 0.00 | 0.00 | 0.00 | 89 | 1016.7 |
| 20260906134344 | 43 | 6 | 0.9 | 1.7 | 0.00 | 0.00 | 0.00 | 91 | 1016.6 |
| 20260906133840 | 41 | 310 | 0.9 | 1.7 | 0.00 | 0.00 | 0.00 | 91 | 1016.4 |
| 20260906133336 | 42 | 304 | 0.9 | 0.9 | 0.00 | 0.00 | 0.00 | 91 | 1016.6 |
| 20260906132831 | 42 | 309 | 0.9 | 0.9 | 0.00 | 0.00 | 0.00 | 91 | 1016.7 |
| 20260906132326 | 42 | 320 | 0.9 | 0.9 | 0.00 | 0.00 | 0.00 | 91 | 1016.7 |
| 20260906131822 | 42 | 1 | 1.7 | 2.6 | 0.00 | 0.00 | 0.00 | 92 | 1016.7 |
| 20260906131317 | 42 | 304 | 0.0 | 0.9 | 0.00 | 0.00 | 0.00 | 93 | 1016.8 |
| 20260906130813 | 41 | 316 | 0.0 | 0.9 | 0.00 | 0.00 | 0.00 | 94 | 1016.6 |
| 20260906130312 | 41 | 349 | 0.9 | 1.7 | 0.00 | 0.00 | 0.00 | 95 | 1016.6 |
| 20260906125811 | 42 | 313 | 0.0 | 0.0 | 0.00 | 0.00 | 0.00 | 94 | 1016.4 |
| 20260906125309 | 41 | 344 | 0.9 | 1.7 | 0.00 | 0.00 | 0.00 | 95 | 1016.4 |
| 20260906124810 | 41 | 327 | 0.0 | 0.0 | 0.00 | 0.00 | 0.00 | 95 | 1016.5 |
| 20260906124306 | 41 | 317 | 0.9 | 0.9 | 0.00 | 0.00 | 0.00 | 95 | 1016.4 |
| 20260906123804 | 41 | 323 | 0.0 | 0.0 | 0.00 | 0.00 | 0.00 | 94 | 1016.4 |
| 20260906123259 | 41 | 314 | 0.9 | 0.9 | 0.00 | 0.00 | 0.00 | 94 | 1016.5 |
| 20260906122759 | 42 | 318 | 0.9 | 0.9 | 0.00 | 0.00 | 0.00 | 94 | 1016.5 |
| 20260906122255 | 41 | 312 | 0.9 | 0.9 | 0.00 | 0.00 | 0.00 | 94 | 1016.6 |
| 20260906121751 | 42 | 308 | 0.0 | 0.9 | 0.00 | 0.00 | 0.00 | 93 | 1016.4 |
| 20260906121247 | 43 | 317 | 0.9 | 0.9 | 0.00 | 0.00 | 0.00 | 92 | 1016.4 |
| 20260906120742 | 43 | 313 | 0.0 | 0.9 | 0.00 | 0.00 | 0.00 | 92 | 1016.4 |
| 20260906120239 | 43 | 337 | 0.9 | 1.7 | 0.00 | 0.00 | 0.00 | 93 | 1016.4 |
| 20260906115735 | 43 | 318 | 0.0 | 0.9 | 0.00 | 0.00 | 0.00 | 93 | 1016.3 |
| 20260906115230 | 42 | 299 | 0.0 | 0.0 | 0.00 | 0.00 | 0.00 | 93 | 1016.4 |
| 20260906114729 | 42 | 333 | 0.9 | 0.9 | 0.00 | 0.00 | 0.00 | 94 | 1016.6 |
| 20260906114224 | 41 | 304 | 0.0 | 0.9 | 0.00 | 0.00 | 0.00 | 93 | 1016.5 |
| 20260906113719 | 42 | 306 | 0.0 | 0.0 | 0.00 | 0.00 | 0.00 | 92 | 1016.6 |
| 20260906113219 | 43 | 312 | 0.0 | 0.0 | 0.00 | 0.00 | 0.00 | 92 | 1016.7 |
| 20260906112718 | 43 | 319 | 0.0 | 0.0 | 0.00 | 0.00 | 0.00 | 94 | 1016.5 |
| 20260906112216 | 42 | 326 | 0.9 | 1.7 | 0.00 | 0.00 | 0.00 | 95 | 1016.8 |
| 20260906111714 | 42 | 306 | 0.9 | 0.9 | 0.00 | 0.00 | 0.00 | 97 | 1016.5 |
| 20260906111209 | 41 | 329 | 0.9 | 0.9 | 0.00 | 0.00 | 0.00 | 97 | 1016.6 |
| 20260906110704 | 42 | 316 | 0.9 | 0.9 | 0.00 | 0.00 | 0.00 | 98 | 1016.5 |
| 20260906110201 | 39 | 356 | 0.9 | 1.7 | 0.00 | 0.00 | 0.00 | 97 | 1016.5 |
| 20260906105659 | 39 | 304 | 0.0 | 0.0 | 0.00 | 0.00 | 0.00 | 98 | 1016.5 |
| 20260906105156 | 39 | 299 | 0.0 | 0.0 | 0.00 | 0.00 | 0.00 | 98 | 1016.7 |
| 20260906104655 | 39 | 341 | 1.7 | 1.7 | 0.00 | 0.00 | 0.00 | 98 | 1016.8 |
| 20260906104154 | 39 | 293 | 0.0 | 0.0 | 0.00 | 0.00 | 0.00 | 98 | 1016.9 |
| 20260906103652 | 40 | 293 | 0.0 | 0.0 | 0.00 | 0.00 | 0.00 | 98 | 1016.8 |
| 20260906103148 | 39 | 285 | 0.0 | 0.0 | 0.00 | 0.00 | 0.00 | 98 | 1016.9 |
| 20260906102643 | 39 | 280 | 0.0 | 0.0 | 0.00 | 0.00 | 0.00 | 98 | 1016.8 |
| 20260906102143 | 39 | 272 | 0.0 | 0.0 | 0.00 | 0.00 | 0.00 | 97 | 1016.7 |
| 20260906101642 | 39 | 287 | 0.0 | 0.0 | 0.00 | 0.00 | 0.00 | 98 | 1016.9 |
| 20260906101137 | 39 | 314 | 0.0 | 0.9 | 0.00 | 0.00 | 0.00 | 98 | 1017.0 |
| 20260906100633 | 40 | 295 | 0.0 | 0.0 | 0.00 | 0.00 | 0.00 | 98 | 1016.9 |
| 20260906100128 | 39 | 295 | 0.0 | 0.0 | 0.00 | 0.00 | 0.00 | 98 | 1016.8 |
| 20260906095628 | 39 | 281 | 0.0 | 0.0 | 0.00 | 0.00 | 0.00 | 97 | 1017.1 |
| 20260906095123 | 39 | 281 | 0.0 | 0.0 | 0.00 | 0.00 | 0.00 | 97 | 1016.9 |
| 20260906094622 | 39 | 302 | 0.9 | 1.7 | 0.00 | 0.00 | 0.00 | 97 | 1016.8 |
| 20260906094118 | 39 | 280 | 0.0 | 0.0 | 0.00 | 0.00 | 0.00 | 97 | 1016.9 |
| 20260906093614 | 39 | 280 | 0.0 | 0.0 | 0.00 | 0.00 | 0.00 | 96 | 1017.0 |
| 20260906093114 | 39 | 280 | 0.0 | 0.0 | 0.00 | 0.00 | 0.00 | 96 | 1016.9 |
| 20260906092609 | 40 | 280 | 0.0 | 0.0 | 0.00 | 0.00 | 0.00 | 96 | 1017.0 |
| 20260906092104 | 40 | 280 | 0.0 | 0.0 | 0.00 | 0.00 | 0.00 | 96 | 1017.2 |
| 20260906091559 | 41 | 280 | 0.0 | 0.0 | 0.00 | 0.00 | 0.00 | 95 | 1017.1 |
| 20260906091056 | 41 | 280 | 0.0 | 0.0 | 0.00 | 0.00 | 0.00 | 95 | 1017.0 |
| 20260906090556 | 41 | 310 | 0.9 | 0.9 | 0.00 | 0.00 | 0.00 | 95 | 1017.3 |
| 20260906090056 | 41 | 298 | 0.9 | 1.7 | 0.00 | 0.00 | 0.00 | 95 | 1017.1 |
| 20260906085555 | 42 | 314 | 0.9 | 0.9 | 0.00 | 0.00 | 0.00 | 95 | 1017.3 |
| 20260906085050 | 42 | 307 | 0.0 | 0.0 | 0.00 | 0.00 | 0.00 | 93 | 1017.1 |
| 20260906084545 | 43 | 331 | 0.9 | 1.7 | 0.00 | 0.00 | 0.00 | 94 | 1017.2 |
| 20260906084043 | 42 | 303 | 0.0 | 0.0 | 0.00 | 0.00 | 0.00 | 93 | 1017.2 |
| 20260906083539 | 43 | 333 | 0.9 | 1.7 | 0.00 | 0.00 | 0.00 | 95 | 1017.3 |
| 20260906083039 | 43 | 313 | 0.0 | 0.0 | 0.00 | 0.00 | 0.00 | 94 | 1017.6 |
| 20260906082534 | 43 | 302 | 0.0 | 0.0 | 0.00 | 0.00 | 0.00 | 93 | 1017.5 |
| 20260906082030 | 44 | 302 | 0.0 | 0.0 | 0.00 | 0.00 | 0.00 | 93 | 1017.5 |
| 20260906081525 | 44 | 302 | 0.0 | 0.0 | 0.00 | 0.00 | 0.00 | 93 | 1017.4 |
| 20260906081021 | 44 | 302 | 0.0 | 0.0 | 0.00 | 0.00 | 0.00 | 92 | 1017.4 |
| 20260906080518 | 45 | 300 | 0.0 | 0.0 | 0.00 | 0.00 | 0.00 | 90 | 1017.5 |
| 20260906080014 | 46 | 310 | 0.9 | 0.9 | 0.00 | 0.00 | 0.00 | 89 | 1017.5 |
| 20260906075513 | 46 | 332 | 0.9 | 0.9 | 0.00 | 0.00 | 0.00 | 90 | 1017.5 |
| 20260906075008 | 45 | 307 | 0.9 | 0.9 | 0.00 | 0.00 | 0.00 | 89 | 1017.6 |
| 20260906074503 | 47 | 295 | 0.0 | 0.0 | 0.00 | 0.00 | 0.00 | 87 | 1017.4 |
| 20260906074001 | 46 | 325 | 0.9 | 0.9 | 0.00 | 0.00 | 0.00 | 87 | 1017.5 |
| 20260906073456 | 47 | 343 | 0.9 | 0.9 | 0.00 | 0.00 | 0.00 | 86 | 1017.4 |
| 20260906072952 | 47 | 358 | 0.9 | 1.7 | 0.00 | 0.00 | 0.00 | 88 | 1017.6 |
| 20260906072447 | 48 | 305 | 0.0 | 0.0 | 0.00 | 0.00 | 0.00 | 85 | 1017.6 |
| 20260906071943 | 48 | 323 | 0.9 | 0.9 | 0.00 | 0.00 | 0.00 | 85 | 1017.6 |
| 20260906071439 | 48 | 304 | 0.9 | 0.9 | 0.00 | 0.00 | 0.00 | 84 | 1017.5 |
| 20260906070935 | 48 | 359 | 1.7 | 1.7 | 0.00 | 0.00 | 0.00 | 84 | 1017.7 |
| 20260906070431 | 48 | 359 | 1.7 | 1.7 | 0.00 | 0.00 | 0.00 | 85 | 1017.5 |
| 20260906065926 | 48 | 300 | 0.0 | 0.0 | 0.00 | 0.00 | 0.00 | 84 | 1017.6 |
| 20260906065420 | 49 | 302 | 0.9 | 0.9 | 0.00 | 0.00 | 0.00 | 82 | 1017.6 |
| 20260906064916 | 50 | 303 | 0.9 | 0.9 | 0.00 | 0.00 | 0.00 | 81 | 1017.5 |
| 20260906064413 | 50 | 333 | 0.9 | 1.7 | 0.00 | 0.00 | 0.00 | 81 | 1017.6 |
| 20260906063912 | 50 | 321 | 0.9 | 1.7 | 0.00 | 0.00 | 0.00 | 80 | 1017.5 |
| 20260906063407 | 50 | 305 | 0.9 | 0.9 | 0.00 | 0.00 | 0.00 | 80 | 1017.5 |
| 20260906062902 | 50 | 339 | 0.9 | 0.9 | 0.00 | 0.00 | 0.00 | 79 | 1017.5 |
| 20260906062402 | 50 | 315 | 0.9 | 0.9 | 0.00 | 0.00 | 0.00 | 79 | 1017.6 |
| 20260906061857 | 51 | 73 | 2.6 | 2.6 | 0.00 | 0.00 | 0.00 | 79 | 1017.5 |
| 20260906061354 | 51 | 359 | 0.9 | 1.7 | 0.00 | 0.00 | 0.00 | 77 | 1017.5 |
| 20260906060848 | 51 | 321 | 0.9 | 0.9 | 0.00 | 0.00 | 0.00 | 77 | 1017.5 |
| 20260906060346 | 51 | 322 | 0.9 | 0.9 | 0.00 | 0.00 | 0.00 | 78 | 1017.7 |
| 20260906055841 | 51 | 330 | 1.7 | 1.7 | 0.00 | 0.00 | 0.00 | 78 | 1017.5 |
| 20260906055337 | 51 | 20 | 0.9 | 1.7 | 0.00 | 0.00 | 0.00 | 78 | 1017.6 |
| 20260906054832 | 51 | 324 | 0.9 | 0.9 | 0.00 | 0.00 | 0.00 | 77 | 1017.5 |
| 20260906054327 | 51 | 4 | 0.9 | 1.7 | 0.00 | 0.00 | 0.00 | 78 | 1017.6 |
| 20260906053824 | 51 | 317 | 0.9 | 1.7 | 0.00 | 0.00 | 0.00 | 77 | 1017.6 |
| 20260906053319 | 52 | 303 | 0.0 | 0.9 | 0.00 | 0.00 | 0.00 | 76 | 1017.5 |
| 20260906052814 | 52 | 22 | 1.7 | 1.7 | 0.00 | 0.00 | 0.00 | 76 | 1017.7 |
| 20260906052310 | 52 | 355 | 0.9 | 0.9 | 0.00 | 0.00 | 0.00 | 75 | 1017.6 |
| 20260906051807 | 53 | 9 | 1.7 | 1.7 | 0.00 | 0.00 | 0.00 | 75 | 1017.6 |
| 20260906051307 | 52 | 13 | 1.7 | 1.7 | 0.00 | 0.00 | 0.00 | 76 | 1017.8 |
| 20260906050802 | 53 | 24 | 0.9 | 1.7 | 0.00 | 0.00 | 0.00 | 75 | 1017.7 |
| 20260906050257 | 53 | 1 | 0.9 | 1.7 | 0.00 | 0.00 | 0.00 | 74 | 1017.5 |
| 20260906045756 | 53 | 346 | 0.9 | 0.9 | 0.00 | 0.00 | 0.00 | 74 | 1017.7 |
| 20260906045250 | 53 | 350 | 1.7 | 1.7 | 0.00 | 0.00 | 0.00 | 74 | 1017.7 |
| 20260906044747 | 54 | 19 | 2.6 | 3.5 | 0.00 | 0.00 | 0.00 | 74 | 1017.7 |
| 20260906044241 | 54 | 250 | 0.0 | 0.0 | 0.00 | 0.00 | 0.00 | 74 | 1017.8 |
| 20260906043737 | 54 | 36 | 1.7 | 2.6 | 0.00 | 0.00 | 0.00 | 74 | 1017.6 |
| 20260906043233 | 54 | 308 | 0.0 | 0.9 | 0.00 | 0.00 | 0.00 | 74 | 1017.6 |
| 20260906042733 | 55 | 292 | 0.0 | 0.0 | 0.00 | 0.00 | 0.00 | 73 | 1017.6 |
| 20260906042231 | 55 | 331 | 0.9 | 1.7 | 0.00 | 0.00 | 0.00 | 73 | 1017.5 |
| 20260906041728 | 55 | 347 | 0.0 | 0.9 | 0.00 | 0.00 | 0.00 | 72 | 1017.7 |
| 20260906041223 | 55 | 264 | 0.0 | 0.9 | 0.00 | 0.00 | 0.00 | 72 | 1017.7 |
| 20260906040718 | 56 | 38 | 0.0 | 0.9 | 0.00 | 0.00 | 0.00 | 72 | 1017.6 |
| 20260906040213 | 56 | 79 | 0.9 | 1.7 | 0.00 | 0.00 | 0.00 | 71 | 1017.6 |
| 20260906035709 | 57 | 93 | 0.9 | 1.7 | 0.00 | 0.00 | 0.00 | 69 | 1017.7 |
| 20260906035205 | 57 | 284 | 0.0 | 0.9 | 0.00 | 0.00 | 0.00 | 69 | 1017.6 |
| 20260906034704 | 57 | 310 | 0.0 | 0.9 | 0.00 | 0.00 | 0.00 | 68 | 1017.6 |
| 20260906034159 | 57 | 49 | 2.6 | 3.5 | 0.00 | 0.00 | 0.00 | 68 | 1017.5 |
| 20260906033655 | 57 | 147 | 1.7 | 1.7 | 0.00 | 0.00 | 0.00 | 69 | 1017.5 |
| 20260906033156 | 58 | 225 | 0.0 | 0.0 | 0.00 | 0.00 | 0.00 | 68 | 1017.7 |
| 20260906032651 | 58 | 176 | 0.9 | 1.7 | 0.00 | 0.00 | 0.00 | 68 | 1017.6 |
| 20260906032146 | 58 | 19 | 2.6 | 3.5 | 0.00 | 0.00 | 0.00 | 67 | 1017.7 |
| 20260906031641 | 58 | 60 | 2.6 | 6.1 | 0.00 | 0.00 | 0.00 | 67 | 1017.7 |
| 20260906031137 | 58 | 323 | 0.9 | 0.9 | 0.00 | 0.00 | 0.00 | 67 | 1017.6 |
| 20260906030636 | 59 | 290 | 0.0 | 0.0 | 0.00 | 0.00 | 0.00 | 65 | 1017.6 |
| 20260906030131 | 59 | 184 | 1.7 | 1.7 | 0.00 | 0.00 | 0.00 | 64 | 1017.5 |
| 20260906025630 | 59 | 299 | 0.0 | 0.0 | 0.00 | 0.00 | 0.00 | 65 | 1017.5 |
| 20260906025130 | 59 | 307 | 0.9 | 0.9 | 0.00 | 0.00 | 0.00 | 64 | 1017.3 |
| 20260906024624 | 59 | 308 | 0.0 | 0.0 | 0.00 | 0.00 | 0.00 | 63 | 1017.4 |
| 20260906024119 | 60 | 346 | 0.9 | 0.9 | 0.00 | 0.00 | 0.00 | 64 | 1017.5 |
| 20260906023615 | 60 | 131 | 0.9 | 1.7 | 0.00 | 0.00 | 0.00 | 64 | 1017.3 |
| 20260906023115 | 60 | 15 | 0.9 | 0.9 | 0.00 | 0.00 | 0.00 | 60 | 1017.2 |
| 20260906022610 | 61 | 33 | 0.9 | 1.7 | 0.00 | 0.00 | 0.00 | 60 | 1017.2 |
| 20260906022106 | 62 | 111 | 0.0 | 0.9 | 0.00 | 0.00 | 0.00 | 58 | 1017.2 |
| 20260906021602 | 63 | 254 | 0.0 | 0.0 | 0.00 | 0.00 | 0.00 | 57 | 1017.3 |
| 20260906021100 | 63 | 292 | 0.9 | 0.9 | 0.00 | 0.00 | 0.00 | 56 | 1017.2 |
| 20260906020600 | 64 | 303 | 0.0 | 0.9 | 0.00 | 0.00 | 0.00 | 56 | 1017.4 |
| 20260906020059 | 64 | 266 | 0.9 | 0.9 | 0.00 | 0.00 | 0.00 | 55 | 1017.3 |
| 20260906015554 | 65 | 18 | 1.7 | 1.7 | 0.00 | 0.00 | 0.00 | 55 | 1017.5 |
| 20260906015053 | 65 | 309 | 0.0 | 0.9 | 0.00 | 0.00 | 0.00 | 55 | 1017.3 |
| 20260906014548 | 66 | 221 | 0.0 | 0.9 | 0.00 | 0.00 | 0.00 | 54 | 1017.2 |
| 20260906014044 | 66 | 43 | 3.5 | 3.5 | 0.00 | 0.00 | 0.00 | 54 | 1017.3 |
| 20260906013538 | 66 | 25 | 3.5 | 3.5 | 0.00 | 0.00 | 0.00 | 54 | 1017.3 |
| 20260906013034 | 66 | 327 | 0.9 | 0.9 | 0.00 | 0.00 | 0.00 | 54 | 1017.3 |
| 20260906012529 | 67 | 95 | 1.7 | 2.6 | 0.00 | 0.00 | 0.00 | 53 | 1017.1 |
| 20260906012028 | 67 | 260 | 0.0 | 0.0 | 0.00 | 0.00 | 0.00 | 52 | 1017.2 |
| 20260906011525 | 67 | 302 | 2.6 | 2.6 | 0.00 | 0.00 | 0.00 | 52 | 1017.1 |
| 20260906011025 | 68 | 13 | 1.7 | 2.6 | 0.00 | 0.00 | 0.00 | 52 | 1017.1 |
| 20260906010520 | 68 | 153 | 0.0 | 0.9 | 0.00 | 0.00 | 0.00 | 52 | 1017.3 |
| 20260906010017 | 68 | 159 | 1.7 | 2.6 | 0.00 | 0.00 | 0.00 | 51 | 1017.2 |
| 20260906005516 | 69 | 184 | 1.7 | 3.5 | 0.00 | 0.00 | 0.00 | 50 | 1017.5 |
| 20260906005015 | 69 | 149 | 1.7 | 1.7 | 0.00 | 0.00 | 0.00 | 45 | 1017.4 |
| 20260906004514 | 69 | 127 | 1.7 | 1.7 | 0.00 | 0.00 | 0.00 | 46 | 1017.4 |
| 20260906004009 | 69 | 204 | 0.9 | 0.9 | 0.00 | 0.00 | 0.00 | 47 | 1017.3 |
| 20260906003504 | 69 | 251 | 0.9 | 0.9 | 0.00 | 0.00 | 0.00 | 50 | 1017.3 |
| 20260906003001 | 69 | 24 | 2.6 | 5.2 | 0.00 | 0.00 | 0.00 | 50 | 1017.4 |
| 20260906002500 | 69 | 174 | 3.5 | 3.5 | 0.00 | 0.00 | 0.00 | 46 | 1017.5 |
| 20260906001955 | 70 | 130 | 1.7 | 1.7 | 0.00 | 0.00 | 0.00 | 44 | 1017.4 |
| 20260906001451 | 70 | 236 | 0.0 | 0.0 | 0.00 | 0.00 | 0.00 | 44 | 1017.4 |
| 20260906000946 | 70 | 187 | 1.7 | 1.7 | 0.00 | 0.00 | 0.00 | 43 | 1017.6 |
| 20260906000442 | 69 | 165 | 1.7 | 2.6 | 0.00 | 0.00 | 0.00 | 44 | 1017.6 |
| 20260905235936 | 70 | 159 | 1.7 | 1.7 | 0.00 | 0.00 | 0.00 | 44 | 1017.5 |
| 20260905235436 | 70 | 60 | 1.7 | 1.7 | 0.00 | 0.00 | 0.00 | 45 | 1018.0 |
| 20260905234931 | 70 | 198 | 0.9 | 1.7 | 0.00 | 0.00 | 0.00 | 44 | 1017.5 |
| 20260905234426 | 70 | 219 | 0.9 | 0.9 | 0.00 | 0.00 | 0.00 | 44 | 1017.7 |
| 20260905233921 | 71 | 183 | 0.9 | 1.7 | 0.00 | 0.00 | 0.00 | 44 | 1018.0 |
| 20260905233416 | 71 | 223 | 0.9 | 0.9 | 0.00 | 0.00 | 0.00 | 42 | 1017.6 |
| 20260905232915 | 69 | 181 | 1.7 | 1.7 | 0.00 | 0.00 | 0.00 | 44 | 1017.7 |
| 20260905232411 | 70 | 140 | 2.6 | 2.6 | 0.00 | 0.00 | 0.00 | 44 | 1018.0 |
| 20260905231906 | 70 | 235 | 0.0 | 0.9 | 0.00 | 0.00 | 0.00 | 44 | 1017.6 |
| 20260905231402 | 70 | 117 | 3.5 | 3.5 | 0.00 | 0.00 | 0.00 | 43 | 1018.0 |
| 20260905230859 | 70 | 266 | 0.0 | 0.0 | 0.00 | 0.00 | 0.00 | 43 | 1018.0 |
| 20260905230356 | 70 | 201 | 1.7 | 2.6 | 0.00 | 0.00 | 0.00 | 45 | 1018.0 |
| 20260905225855 | 70 | 252 | 0.9 | 0.9 | 0.00 | 0.00 | 0.00 | 44 | 1018.0 |
| 20260905225350 | 70 | 146 | 2.6 | 2.6 | 0.00 | 0.00 | 0.00 | 44 | 1017.8 |
| 20260905224846 | 69 | 219 | 1.7 | 2.6 | 0.00 | 0.00 | 0.00 | 45 | 1018.0 |
| 20260905224342 | 69 | 209 | 4.3 | 5.2 | 0.00 | 0.00 | 0.00 | 45 | 1018.1 |
| 20260905223841 | 69 | 161 | 2.6 | 2.6 | 0.00 | 0.00 | 0.00 | 45 | 1018.0 |
| 20260905223340 | 69 | 136 | 3.5 | 3.5 | 0.00 | 0.00 | 0.00 | 47 | 1018.2 |
| 20260905222840 | 69 | 130 | 4.3 | 6.1 | 0.00 | 0.00 | 0.00 | 47 | 1018.3 |
| 20260905222338 | 69 | 109 | 4.3 | 5.2 | 0.00 | 0.00 | 0.00 | 46 | 1018.1 |
| 20260905221835 | 69 | 149 | 0.9 | 2.6 | 0.00 | 0.00 | 0.00 | 49 | 1018.4 |
| 20260905221331 | 69 | 194 | 1.7 | 2.6 | 0.00 | 0.00 | 0.00 | 47 | 1018.5 |
| 20260905220827 | 69 | 143 | 2.6 | 3.5 | 0.00 | 0.00 | 0.00 | 49 | 1018.6 |
| 20260905220323 | 68 | 148 | 2.6 | 2.6 | 0.00 | 0.00 | 0.00 | 47 | 1018.4 |
| 20260905215822 | 68 | 243 | 0.0 | 0.9 | 0.00 | 0.00 | 0.00 | 48 | 1018.4 |
| 20260905215318 | 68 | 149 | 1.7 | 2.6 | 0.00 | 0.00 | 0.00 | 47 | 1018.6 |
| 20260905214814 | 69 | 113 | 2.6 | 3.5 | 0.00 | 0.00 | 0.00 | 47 | 1018.6 |
| 20260905214309 | 68 | 220 | 0.9 | 0.9 | 0.00 | 0.00 | 0.00 | 47 | 1018.6 |
| 20260905213804 | 68 | 122 | 3.5 | 3.5 | 0.00 | 0.00 | 0.00 | 47 | 1018.7 |
| 20260905213300 | 67 | 12 | 1.7 | 1.7 | 0.00 | 0.00 | 0.00 | 48 | 1018.6 |
| 20260905212755 | 68 | 154 | 2.6 | 2.6 | 0.00 | 0.00 | 0.00 | 49 | 1018.8 |
| 20260905212255 | 67 | 119 | 3.5 | 3.5 | 0.00 | 0.00 | 0.00 | 49 | 1018.8 |
| 20260905211754 | 67 | 111 | 4.3 | 5.2 | 0.00 | 0.00 | 0.00 | 49 | 1018.8 |
| 20260905211250 | 67 | 244 | 0.0 | 0.9 | 0.00 | 0.00 | 0.00 | 49 | 1018.8 |
| 20260905210747 | 67 | 239 | 0.0 | 0.0 | 0.00 | 0.00 | 0.00 | 47 | 1019.0 |
| 20260905210246 | 67 | 266 | 0.0 | 0.0 | 0.00 | 0.00 | 0.00 | 47 | 1018.9 |